sensor_id;sensor_type;location;lat;lon;timestamp;pressure;altitude;pressure_sealevel;temperature;humidity
13553;BME280;6847;48.830;9.116;2023-07-09T00:00:18;98231.44;;;25.93;36.79
13553;BME280;6847;48.830;9.116;2023-07-09T00:02:45;98186.56;;;25.65;36.94
13553;BME280;6847;48.830;9.116;2023-07-09T00:05:14;98159.94;;;25.41;36.89
13553;BME280;6847;48.830;9.116;2023-07-09T00:07:42;98226.06;;;25.81;37.19
13553;BME280;6847;48.830;9.116;2023-07-09T00:10:14;98192.69;;;25.55;36.92
13553;BME280;6847;48.830;9.116;2023-07-09T00:12:41;98229.88;;;25.73;37.13
13553;BME280;6847;48.830;9.116;2023-07-09T00:15:11;98233.38;;;25.70;37.23
13553;BME280;6847;48.830;9.116;2023-07-09T00:17:38;98226.09;;;25.62;37.24
13553;BME280;6847;48.830;9.116;2023-07-09T00:20:08;98233.97;;;25.60;37.32
13553;BME280;6847;48.830;9.116;2023-07-09T00:22:38;98234.69;;;25.57;37.58
13553;BME280;6847;48.830;9.116;2023-07-09T00:25:09;98210.94;;;25.36;37.59
13553;BME280;6847;48.830;9.116;2023-07-09T00:27:39;98234.91;;;25.48;37.68
13553;BME280;6847;48.830;9.116;2023-07-09T00:30:15;98228.16;;;25.46;37.86
13553;BME280;6847;48.830;9.116;2023-07-09T00:32:42;98234.44;;;25.42;37.80
13553;BME280;6847;48.830;9.116;2023-07-09T00:35:10;98241.84;;;25.38;37.92
13553;BME280;6847;48.830;9.116;2023-07-09T00:37:40;98139.56;;;24.72;38.03
13553;BME280;6847;48.830;9.116;2023-07-09T00:40:14;98197.72;;;25.07;38.18
13553;BME280;6847;48.830;9.116;2023-07-09T00:42:45;98181.03;;;24.88;38.22
13553;BME280;6847;48.830;9.116;2023-07-09T00:45:19;98247.06;;;25.21;38.26
13553;BME280;6847;48.830;9.116;2023-07-09T00:47:48;98242.63;;;25.16;38.34
13553;BME280;6847;48.830;9.116;2023-07-09T00:50:27;98227.28;;;25.03;38.34
13553;BME280;6847;48.830;9.116;2023-07-09T00:52:56;98239.97;;;25.04;38.41
13553;BME280;6847;48.830;9.116;2023-07-09T00:55:27;98242.31;;;25.02;38.54
13553;BME280;6847;48.830;9.116;2023-07-09T00:58:00;98234.09;;;24.90;38.67
13553;BME280;6847;48.830;9.116;2023-07-09T01:00:33;98248.88;;;24.94;38.71
13553;BME280;6847;48.830;9.116;2023-07-09T01:03:08;98248.41;;;24.92;38.72
13553;BME280;6847;48.830;9.116;2023-07-09T01:05:37;98257.81;;;24.87;38.91
13553;BME280;6847;48.830;9.116;2023-07-09T01:08:06;98242.25;;;24.83;38.99
13553;BME280;6847;48.830;9.116;2023-07-09T01:10:35;98249.69;;;24.79;39.02
13553;BME280;6847;48.830;9.116;2023-07-09T01:13:01;98118.34;;;23.90;39.30
13553;BME280;6847;48.830;9.116;2023-07-09T01:15:29;98077.81;;;23.63;39.38
13553;BME280;6847;48.830;9.116;2023-07-09T01:17:59;98226.53;;;24.52;39.37
13553;BME280;6847;48.830;9.116;2023-07-09T01:20:27;98257.31;;;24.66;39.41
13553;BME280;6847;48.830;9.116;2023-07-09T01:22:55;98249.38;;;24.64;39.49
13553;BME280;6847;48.830;9.116;2023-07-09T01:25:24;98259.19;;;24.62;39.50
13553;BME280;6847;48.830;9.116;2023-07-09T01:27:52;98244.41;;;24.54;39.69
13553;BME280;6847;48.830;9.116;2023-07-09T01:30:22;98237.16;;;24.50;39.65
13553;BME280;6847;48.830;9.116;2023-07-09T01:32:50;98243.22;;;24.55;39.71
13553;BME280;6847;48.830;9.116;2023-07-09T01:35:20;98249.47;;;24.52;39.83
13553;BME280;6847;48.830;9.116;2023-07-09T01:37:48;98248.22;;;24.50;39.91
13553;BME280;6847;48.830;9.116;2023-07-09T01:40:20;98246.56;;;24.45;39.99
13553;BME280;6847;48.830;9.116;2023-07-09T01:42:48;98239.41;;;24.44;40.03
13553;BME280;6847;48.830;9.116;2023-07-09T01:45:17;98240.13;;;24.41;40.17
13553;BME280;6847;48.830;9.116;2023-07-09T01:47:45;98247.97;;;24.39;40.20
13553;BME280;6847;48.830;9.116;2023-07-09T01:50:12;98241.03;;;24.29;40.39
13553;BME280;6847;48.830;9.116;2023-07-09T01:52:43;98233.72;;;24.37;40.21
13553;BME280;6847;48.830;9.116;2023-07-09T01:55:11;98223.19;;;24.27;40.48
13553;BME280;6847;48.830;9.116;2023-07-09T01:57:40;98238.34;;;24.33;40.43
13553;BME280;6847;48.830;9.116;2023-07-09T02:00:09;98248.97;;;24.31;40.55
13553;BME280;6847;48.830;9.116;2023-07-09T02:02:36;98223.63;;;24.13;40.68
13553;BME280;6847;48.830;9.116;2023-07-09T02:05:05;98231.75;;;24.06;40.65
13553;BME280;6847;48.830;9.116;2023-07-09T02:07:32;98256.97;;;24.20;40.89
13553;BME280;6847;48.830;9.116;2023-07-09T02:09:58;98249.78;;;24.16;40.91
13553;BME280;6847;48.830;9.116;2023-07-09T02:12:25;98250.03;;;24.11;41.03
13553;BME280;6847;48.830;9.116;2023-07-09T02:14:53;98251.00;;;24.03;41.13
13553;BME280;6847;48.830;9.116;2023-07-09T02:17:20;98216.13;;;23.82;41.03
13553;BME280;6847;48.830;9.116;2023-07-09T02:19:47;98252.63;;;24.04;41.12
13553;BME280;6847;48.830;9.116;2023-07-09T02:22:13;98233.78;;;23.93;41.24
13553;BME280;6847;48.830;9.116;2023-07-09T02:24:40;98245.13;;;23.88;41.36
13553;BME280;6847;48.830;9.116;2023-07-09T02:27:08;98236.72;;;23.85;41.18
13553;BME280;6847;48.830;9.116;2023-07-09T02:29:36;98253.03;;;23.90;41.30
13553;BME280;6847;48.830;9.116;2023-07-09T02:32:05;98244.13;;;23.81;41.42
13553;BME280;6847;48.830;9.116;2023-07-09T02:34:31;98262.44;;;23.85;41.43
13553;BME280;6847;48.830;9.116;2023-07-09T02:36:59;98243.13;;;23.73;41.64
13553;BME280;6847;48.830;9.116;2023-07-09T02:39:26;98169.94;;;23.23;41.54
13553;BME280;6847;48.830;9.116;2023-07-09T02:41:53;98258.75;;;23.81;41.70
13553;BME280;6847;48.830;9.116;2023-07-09T02:44:20;98183.50;;;23.29;41.66
13553;BME280;6847;48.830;9.116;2023-07-09T02:46:47;98257.41;;;23.75;41.74
13553;BME280;6847;48.830;9.116;2023-07-09T02:49:15;98265.25;;;23.73;41.92
13553;BME280;6847;48.830;9.116;2023-07-09T02:51:42;98262.03;;;23.71;42.01
13553;BME280;6847;48.830;9.116;2023-07-09T02:54:08;98224.16;;;23.44;42.10
13553;BME280;6847;48.830;9.116;2023-07-09T02:56:35;98262.78;;;23.68;42.07
13553;BME280;6847;48.830;9.116;2023-07-09T02:59:02;98263.47;;;23.65;42.33
13553;BME280;6847;48.830;9.116;2023-07-09T03:01:28;98260.69;;;23.65;42.21
13553;BME280;6847;48.830;9.116;2023-07-09T03:03:55;98269.81;;;23.66;42.31
13553;BME280;6847;48.830;9.116;2023-07-09T03:06:32;98275.22;;;23.62;42.40
13553;BME280;6847;48.830;9.116;2023-07-09T03:09:00;98282.28;;;23.59;42.61
13553;BME280;6847;48.830;9.116;2023-07-09T03:11:29;98287.69;;;23.56;42.45
13553;BME280;6847;48.830;9.116;2023-07-09T03:13:56;98268.47;;;23.47;42.67
13553;BME280;6847;48.830;9.116;2023-07-09T03:16:23;98279.66;;;23.51;42.84
13553;BME280;6847;48.830;9.116;2023-07-09T03:18:52;98256.31;;;23.36;42.76
13553;BME280;6847;48.830;9.116;2023-07-09T03:21:19;98239.44;;;23.25;42.71
13553;BME280;6847;48.830;9.116;2023-07-09T03:23:47;98277.13;;;23.46;42.95
13553;BME280;6847;48.830;9.116;2023-07-09T03:26:13;98260.25;;;23.35;42.97
13553;BME280;6847;48.830;9.116;2023-07-09T03:28:40;98248.09;;;23.24;42.97
13553;BME280;6847;48.830;9.116;2023-07-09T03:31:07;98279.69;;;23.39;43.17
13553;BME280;6847;48.830;9.116;2023-07-09T03:33:34;98277.63;;;23.36;43.07
13553;BME280;6847;48.830;9.116;2023-07-09T03:36:01;98235.38;;;23.07;43.16
13553;BME280;6847;48.830;9.116;2023-07-09T03:38:30;98210.03;;;22.90;43.16
13553;BME280;6847;48.830;9.116;2023-07-09T03:40:58;98283.84;;;23.33;43.29
13553;BME280;6847;48.830;9.116;2023-07-09T03:43:25;98246.44;;;23.07;43.31
13553;BME280;6847;48.830;9.116;2023-07-09T03:45:52;98285.72;;;23.29;43.43
13553;BME280;6847;48.830;9.116;2023-07-09T03:48:19;98254.03;;;23.10;43.20
13553;BME280;6847;48.830;9.116;2023-07-09T03:50:49;98281.34;;;23.28;43.43
13553;BME280;6847;48.830;9.116;2023-07-09T03:53:16;98280.09;;;23.25;43.54
13553;BME280;6847;48.830;9.116;2023-07-09T03:55:45;98285.59;;;23.25;43.58
13553;BME280;6847;48.830;9.116;2023-07-09T03:58:14;98284.47;;;23.26;43.79
13553;BME280;6847;48.830;9.116;2023-07-09T04:00:41;98238.63;;;22.97;43.46
13553;BME280;6847;48.830;9.116;2023-07-09T04:03:07;98291.59;;;23.27;43.72
13553;BME280;6847;48.830;9.116;2023-07-09T04:05:35;98232.09;;;22.90;43.67
13553;BME280;6847;48.830;9.116;2023-07-09T04:08:02;98293.28;;;23.32;43.78
13553;BME280;6847;48.830;9.116;2023-07-09T04:10:29;98292.59;;;23.35;43.69
13553;BME280;6847;48.830;9.116;2023-07-09T04:12:56;98291.91;;;23.38;43.78
13553;BME280;6847;48.830;9.116;2023-07-09T04:15:24;98293.94;;;23.41;44.11
13553;BME280;6847;48.830;9.116;2023-07-09T04:17:51;98263.84;;;23.23;43.93
13553;BME280;6847;48.830;9.116;2023-07-09T04:20:18;98236.94;;;23.20;43.78
13553;BME280;6847;48.830;9.116;2023-07-09T04:22:44;98296.91;;;23.60;43.90
13553;BME280;6847;48.830;9.116;2023-07-09T04:25:12;98287.00;;;23.59;43.85
13553;BME280;6847;48.830;9.116;2023-07-09T04:27:40;98251.09;;;23.47;43.84
13553;BME280;6847;48.830;9.116;2023-07-09T04:30:10;98292.22;;;23.76;44.02
13553;BME280;6847;48.830;9.116;2023-07-09T04:32:39;98308.53;;;23.81;44.08
13553;BME280;6847;48.830;9.116;2023-07-09T04:35:08;98297.22;;;23.86;43.81
13553;BME280;6847;48.830;9.116;2023-07-09T04:37:36;98291.69;;;23.86;43.90
13553;BME280;6847;48.830;9.116;2023-07-09T04:40:04;98273.03;;;23.83;44.03
13553;BME280;6847;48.830;9.116;2023-07-09T04:42:32;98288.84;;;23.98;44.12
13553;BME280;6847;48.830;9.116;2023-07-09T04:44:59;98297.16;;;24.14;44.00
13553;BME280;6847;48.830;9.116;2023-07-09T04:47:26;98300.94;;;24.22;44.08
13553;BME280;6847;48.830;9.116;2023-07-09T04:49:54;98306.22;;;24.27;43.91
13553;BME280;6847;48.830;9.116;2023-07-09T04:52:20;98278.31;;;24.20;44.10
13553;BME280;6847;48.830;9.116;2023-07-09T04:54:47;98306.53;;;24.41;44.04
13553;BME280;6847;48.830;9.116;2023-07-09T04:57:15;98312.69;;;24.50;44.12
13553;BME280;6847;48.830;9.116;2023-07-09T04:59:42;98289.22;;;24.44;44.11
13553;BME280;6847;48.830;9.116;2023-07-09T05:02:11;98313.84;;;24.65;44.12
13553;BME280;6847;48.830;9.116;2023-07-09T05:04:39;98314.47;;;24.74;44.08
13553;BME280;6847;48.830;9.116;2023-07-09T05:07:07;98305.06;;;24.79;44.05
13553;BME280;6847;48.830;9.116;2023-07-09T05:09:34;98280.44;;;24.74;43.96
13553;BME280;6847;48.830;9.116;2023-07-09T05:12:01;98312.72;;;25.01;43.94
13553;BME280;6847;48.830;9.116;2023-07-09T05:14:28;98298.44;;;24.99;43.92
13553;BME280;6847;48.830;9.116;2023-07-09T05:16:54;98322.69;;;25.21;44.03
13553;BME280;6847;48.830;9.116;2023-07-09T05:19:21;98319.53;;;25.23;43.83
13553;BME280;6847;48.830;9.116;2023-07-09T05:21:48;98325.38;;;25.37;43.84
13553;BME280;6847;48.830;9.116;2023-07-09T05:24:15;98324.75;;;25.43;43.77
13553;BME280;6847;48.830;9.116;2023-07-09T05:26:42;98302.44;;;25.36;43.72
13553;BME280;6847;48.830;9.116;2023-07-09T05:29:10;98321.06;;;25.59;43.68
13553;BME280;6847;48.830;9.116;2023-07-09T05:31:37;98262.28;;;25.30;43.66
13553;BME280;6847;48.830;9.116;2023-07-09T05:34:05;98328.56;;;25.74;43.81
13553;BME280;6847;48.830;9.116;2023-07-09T05:36:31;98326.34;;;25.83;43.74
13553;BME280;6847;48.830;9.116;2023-07-09T05:38:59;98332.03;;;25.90;43.54
13553;BME280;6847;48.830;9.116;2023-07-09T05:41:27;98326.59;;;25.97;43.59
13553;BME280;6847;48.830;9.116;2023-07-09T05:43:54;98334.31;;;26.07;43.79
13553;BME280;6847;48.830;9.116;2023-07-09T05:46:21;98331.72;;;26.14;43.41
13553;BME280;6847;48.830;9.116;2023-07-09T05:48:48;98324.22;;;26.18;43.46
13553;BME280;6847;48.830;9.116;2023-07-09T05:51:15;98323.13;;;26.23;43.38
13553;BME280;6847;48.830;9.116;2023-07-09T05:53:41;98325.50;;;26.25;43.92
13553;BME280;6847;48.830;9.116;2023-07-09T05:56:08;98304.69;;;26.11;43.94
13553;BME280;6847;48.830;9.116;2023-07-09T05:58:37;98332.09;;;26.36;43.83
13553;BME280;6847;48.830;9.116;2023-07-09T06:01:03;98299.31;;;26.22;43.43
13553;BME280;6847;48.830;9.116;2023-07-09T06:03:33;98281.84;;;26.22;43.30
13553;BME280;6847;48.830;9.116;2023-07-09T06:06:00;98339.78;;;26.69;43.10
13553;BME280;6847;48.830;9.116;2023-07-09T06:08:27;98335.94;;;26.77;43.53
13553;BME280;6847;48.830;9.116;2023-07-09T06:10:55;98309.59;;;26.67;43.29
13553;BME280;6847;48.830;9.116;2023-07-09T06:13:24;98335.38;;;26.90;43.34
13553;BME280;6847;48.830;9.116;2023-07-09T06:15:54;98335.50;;;26.98;43.24
13553;BME280;6847;48.830;9.116;2023-07-09T06:18:24;98340.88;;;27.13;43.30
13553;BME280;6847;48.830;9.116;2023-07-09T06:20:55;98300.69;;;27.07;42.97
13553;BME280;6847;48.830;9.116;2023-07-09T06:23:24;98330.53;;;27.40;42.60
13553;BME280;6847;48.830;9.116;2023-07-09T06:25:51;98283.44;;;27.24;42.76
13553;BME280;6847;48.830;9.116;2023-07-09T06:28:19;98350.88;;;27.78;42.39
13553;BME280;6847;48.830;9.116;2023-07-09T06:30:47;98338.28;;;27.87;42.48
13553;BME280;6847;48.830;9.116;2023-07-09T06:33:17;98351.56;;;28.05;42.34
13553;BME280;6847;48.830;9.116;2023-07-09T06:35:47;98333.25;;;28.00;42.33
13553;BME280;6847;48.830;9.116;2023-07-09T06:38:15;98349.84;;;28.26;42.30
13553;BME280;6847;48.830;9.116;2023-07-09T06:40:43;98353.97;;;28.43;42.14
13553;BME280;6847;48.830;9.116;2023-07-09T06:43:11;98350.09;;;28.55;42.10
13553;BME280;6847;48.830;9.116;2023-07-09T06:45:48;98339.00;;;28.62;41.98
13553;BME280;6847;48.830;9.116;2023-07-09T06:48:16;98352.66;;;28.74;42.00
13553;BME280;6847;48.830;9.116;2023-07-09T06:50:43;98343.44;;;28.70;41.71
13553;BME280;6847;48.830;9.116;2023-07-09T06:53:10;98338.41;;;28.79;41.62
13553;BME280;6847;48.830;9.116;2023-07-09T06:55:36;98356.84;;;29.01;41.52
13553;BME280;6847;48.830;9.116;2023-07-09T06:58:05;98351.38;;;29.16;41.87
13553;BME280;6847;48.830;9.116;2023-07-09T07:00:34;98348.66;;;29.26;41.49
13553;BME280;6847;48.830;9.116;2023-07-09T07:03:03;98343.59;;;29.50;40.97
13553;BME280;6847;48.830;9.116;2023-07-09T07:05:32;98354.06;;;29.67;41.07
13553;BME280;6847;48.830;9.116;2023-07-09T07:08:00;98354.88;;;29.78;41.19
13553;BME280;6847;48.830;9.116;2023-07-09T07:10:26;98193.91;;;28.88;40.80
13553;BME280;6847;48.830;9.116;2023-07-09T07:12:55;98353.00;;;30.00;41.04
13553;BME280;6847;48.830;9.116;2023-07-09T07:15:22;98336.25;;;30.07;40.53
13553;BME280;6847;48.830;9.116;2023-07-09T07:17:50;98349.47;;;30.28;40.81
13553;BME280;6847;48.830;9.116;2023-07-09T07:20:18;98348.69;;;30.41;40.72
13553;BME280;6847;48.830;9.116;2023-07-09T07:22:47;98347.13;;;30.55;40.53
13553;BME280;6847;48.830;9.116;2023-07-09T07:25:14;98355.09;;;30.67;39.77
13553;BME280;6847;48.830;9.116;2023-07-09T07:27:41;98355.50;;;30.76;39.86
13553;BME280;6847;48.830;9.116;2023-07-09T07:30:08;98351.91;;;30.86;39.62
13553;BME280;6847;48.830;9.116;2023-07-09T07:32:37;98329.53;;;30.89;39.91
13553;BME280;6847;48.830;9.116;2023-07-09T07:35:05;98342.31;;;31.15;39.41
13553;BME280;6847;48.830;9.116;2023-07-09T07:37:32;98317.56;;;31.10;39.59
13553;BME280;6847;48.830;9.116;2023-07-09T07:40:01;98345.88;;;31.34;39.54
13553;BME280;6847;48.830;9.116;2023-07-09T07:42:30;98342.22;;;31.51;38.95
13553;BME280;6847;48.830;9.116;2023-07-09T07:44:57;98346.16;;;31.64;38.81
13553;BME280;6847;48.830;9.116;2023-07-09T07:47:27;98331.69;;;31.83;38.60
13553;BME280;6847;48.830;9.116;2023-07-09T07:49:55;98265.41;;;31.59;38.48
13553;BME280;6847;48.830;9.116;2023-07-09T07:52:23;98339.13;;;32.22;38.49
13553;BME280;6847;48.830;9.116;2023-07-09T07:54:50;98293.94;;;32.06;37.95
13553;BME280;6847;48.830;9.116;2023-07-09T07:57:19;98336.44;;;32.59;37.56
13553;BME280;6847;48.830;9.116;2023-07-09T07:59:45;98277.72;;;32.38;37.60
13553;BME280;6847;48.830;9.116;2023-07-09T08:02:14;98326.19;;;32.90;37.52
13553;BME280;6847;48.830;9.116;2023-07-09T08:04:43;98333.72;;;32.97;37.62
13553;BME280;6847;48.830;9.116;2023-07-09T08:07:12;98332.00;;;33.10;37.09
13553;BME280;6847;48.830;9.116;2023-07-09T08:09:38;98332.56;;;33.32;36.46
13553;BME280;6847;48.830;9.116;2023-07-09T08:12:06;98316.81;;;33.41;36.68
13553;BME280;6847;48.830;9.116;2023-07-09T08:14:39;98321.59;;;33.44;36.29
13553;BME280;6847;48.830;9.116;2023-07-09T08:17:07;98327.34;;;33.68;36.66
13553;BME280;6847;48.830;9.116;2023-07-09T08:19:44;98333.53;;;33.86;36.20
13553;BME280;6847;48.830;9.116;2023-07-09T08:22:10;98330.50;;;34.00;36.05
13553;BME280;6847;48.830;9.116;2023-07-09T08:24:37;98331.06;;;34.18;35.85
13553;BME280;6847;48.830;9.116;2023-07-09T08:27:06;98324.50;;;34.29;35.87
13553;BME280;6847;48.830;9.116;2023-07-09T08:29:37;98235.38;;;33.72;35.35
13553;BME280;6847;48.830;9.116;2023-07-09T08:32:05;98295.66;;;34.25;35.03
13553;BME280;6847;48.830;9.116;2023-07-09T08:34:32;98331.03;;;34.72;34.68
13553;BME280;6847;48.830;9.116;2023-07-09T08:36:59;98328.50;;;35.05;35.01
13553;BME280;6847;48.830;9.116;2023-07-09T08:39:25;98332.31;;;35.77;33.90
13553;BME280;6847;48.830;9.116;2023-07-09T08:41:54;98334.75;;;37.12;32.19
13553;BME280;6847;48.830;9.116;2023-07-09T08:44:45;98342.25;;;38.43;30.82
13553;BME280;6847;48.830;9.116;2023-07-09T08:47:20;98337.06;;;39.71;29.16
13553;BME280;6847;48.830;9.116;2023-07-09T08:49:54;98337.97;;;40.91;27.92
13553;BME280;6847;48.830;9.116;2023-07-09T08:52:26;98324.91;;;42.27;26.46
13553;BME280;6847;48.830;9.116;2023-07-09T08:54:55;98340.00;;;43.85;25.45
13553;BME280;6847;48.830;9.116;2023-07-09T08:57:26;98337.09;;;44.94;24.70
13553;BME280;6847;48.830;9.116;2023-07-09T08:59:59;98349.38;;;45.87;24.24
13553;BME280;6847;48.830;9.116;2023-07-09T09:02:31;98322.56;;;45.58;24.10
13553;BME280;6847;48.830;9.116;2023-07-09T09:04:59;98359.59;;;46.19;23.87
13553;BME280;6847;48.830;9.116;2023-07-09T09:07:34;98363.63;;;47.07;23.05
13553;BME280;6847;48.830;9.116;2023-07-09T09:10:04;98364.63;;;47.63;22.63
13553;BME280;6847;48.830;9.116;2023-07-09T09:12:36;98370.97;;;48.01;22.19
13553;BME280;6847;48.830;9.116;2023-07-09T09:15:12;98361.06;;;47.79;22.27
13553;BME280;6847;48.830;9.116;2023-07-09T09:17:40;98355.31;;;48.02;21.84
13553;BME280;6847;48.830;9.116;2023-07-09T09:20:10;98358.50;;;48.48;21.66
13553;BME280;6847;48.830;9.116;2023-07-09T09:22:43;98359.28;;;48.54;21.40
13553;BME280;6847;48.830;9.116;2023-07-09T09:25:18;98332.88;;;48.67;21.01
13553;BME280;6847;48.830;9.116;2023-07-09T09:30:24;98359.19;;;49.05;21.05
13553;BME280;6847;48.830;9.116;2023-07-09T09:32:56;98338.06;;;48.74;20.92
13553;BME280;6847;48.830;9.116;2023-07-09T09:35:29;98251.94;;;47.57;20.96
13553;BME280;6847;48.830;9.116;2023-07-09T09:37:57;98329.66;;;47.48;21.25
13553;BME280;6847;48.830;9.116;2023-07-09T09:41:30;98174.63;;;47.03;20.71
13553;BME280;6847;48.830;9.116;2023-07-09T09:43:59;98333.88;;;48.70;20.05
13553;BME280;6847;48.830;9.116;2023-07-09T09:46:27;98368.44;;;49.44;19.97
13553;BME280;6847;48.830;9.116;2023-07-09T09:48:55;98322.56;;;49.63;19.25
13553;BME280;6847;48.830;9.116;2023-07-09T09:51:26;98360.44;;;50.14;18.69
13553;BME280;6847;48.830;9.116;2023-07-09T09:53:58;98346.94;;;50.33;18.51
13553;BME280;6847;48.830;9.116;2023-07-09T09:56:27;98356.38;;;50.63;19.02
13553;BME280;6847;48.830;9.116;2023-07-09T09:58:57;98356.19;;;50.80;18.28
13553;BME280;6847;48.830;9.116;2023-07-09T10:04:36;98336.19;;;50.04;18.95
13553;BME280;6847;48.830;9.116;2023-07-09T10:07:05;98319.59;;;48.25;19.65
13553;BME280;6847;48.830;9.116;2023-07-09T10:09:42;98321.19;;;46.31;21.11
13553;BME280;6847;48.830;9.116;2023-07-09T10:12:16;98331.06;;;44.57;21.95
13553;BME280;6847;48.830;9.116;2023-07-09T10:14:50;98315.38;;;43.59;22.38
13553;BME280;6847;48.830;9.116;2023-07-09T10:17:31;98272.28;;;43.27;22.06
13553;BME280;6847;48.830;9.116;2023-07-09T10:20:07;98304.19;;;43.84;20.95
13553;BME280;6847;48.830;9.116;2023-07-09T10:22:40;98310.47;;;43.88;20.88
13553;BME280;6847;48.830;9.116;2023-07-09T10:25:19;98312.44;;;44.26;20.32
13553;BME280;6847;48.830;9.116;2023-07-09T10:28:02;98308.22;;;44.57;19.90
13553;BME280;6847;48.830;9.116;2023-07-09T10:30:46;98309.56;;;44.76;19.58
13553;BME280;6847;48.830;9.116;2023-07-09T10:33:27;98304.97;;;45.45;19.31
13553;BME280;6847;48.830;9.116;2023-07-09T10:36:07;98296.50;;;46.08;18.68
13553;BME280;6847;48.830;9.116;2023-07-09T10:38:52;98298.06;;;46.83;18.21
13553;BME280;6847;48.830;9.116;2023-07-09T10:41:23;98307.72;;;46.80;18.43
13553;BME280;6847;48.830;9.116;2023-07-09T10:43:57;98301.56;;;47.04;18.11
13553;BME280;6847;48.830;9.116;2023-07-09T10:46:31;98306.66;;;46.83;18.12
13553;BME280;6847;48.830;9.116;2023-07-09T10:49:03;98298.63;;;46.87;18.31
13553;BME280;6847;48.830;9.116;2023-07-09T10:51:37;98285.91;;;46.51;18.50
13553;BME280;6847;48.830;9.116;2023-07-09T10:54:14;98297.50;;;46.05;18.28
13553;BME280;6847;48.830;9.116;2023-07-09T10:56:42;98290.44;;;45.75;18.26
13553;BME280;6847;48.830;9.116;2023-07-09T10:59:16;98285.88;;;45.57;18.45
13553;BME280;6847;48.830;9.116;2023-07-09T11:01:50;98284.59;;;45.38;18.40
13553;BME280;6847;48.830;9.116;2023-07-09T11:04:23;98279.84;;;45.09;18.28
13553;BME280;6847;48.830;9.116;2023-07-09T11:06:56;98281.44;;;44.89;18.39
13553;BME280;6847;48.830;9.116;2023-07-09T11:09:27;98257.44;;;44.81;18.43
13553;BME280;6847;48.830;9.116;2023-07-09T11:12:02;98274.22;;;44.94;18.19
13553;BME280;6847;48.830;9.116;2023-07-09T11:14:35;98271.28;;;44.88;17.83
13553;BME280;6847;48.830;9.116;2023-07-09T11:17:05;98276.75;;;44.72;18.20
13553;BME280;6847;48.830;9.116;2023-07-09T11:19:41;98272.81;;;44.69;17.74
13553;BME280;6847;48.830;9.116;2023-07-09T11:22:15;98272.00;;;45.04;17.78
13553;BME280;6847;48.830;9.116;2023-07-09T11:24:46;98278.88;;;45.12;17.44
13553;BME280;6847;48.830;9.116;2023-07-09T11:27:22;98276.69;;;45.27;17.39
13553;BME280;6847;48.830;9.116;2023-07-09T11:29:58;98273.13;;;45.32;17.00
13553;BME280;6847;48.830;9.116;2023-07-09T11:32:29;98198.31;;;45.39;16.82
13553;BME280;6847;48.830;9.116;2023-07-09T11:35:09;98236.88;;;46.06;17.30
13553;BME280;6847;48.830;9.116;2023-07-09T11:37:51;98276.19;;;46.06;16.67
13553;BME280;6847;48.830;9.116;2023-07-09T11:40:21;98272.47;;;45.68;17.29
13553;BME280;6847;48.830;9.116;2023-07-09T11:42:51;98235.69;;;45.10;17.27
13553;BME280;6847;48.830;9.116;2023-07-09T11:45:24;98255.72;;;44.89;17.76
13553;BME280;6847;48.830;9.116;2023-07-09T11:47:55;98231.53;;;44.70;17.55
13553;BME280;6847;48.830;9.116;2023-07-09T11:50:29;98263.00;;;44.90;17.27
13553;BME280;6847;48.830;9.116;2023-07-09T11:53:04;98251.84;;;44.72;17.55
13553;BME280;6847;48.830;9.116;2023-07-09T11:55:39;98248.88;;;44.67;17.29
13553;BME280;6847;48.830;9.116;2023-07-09T11:58:18;98216.41;;;43.94;17.21
13553;BME280;6847;48.830;9.116;2023-07-09T12:00:50;98242.22;;;43.70;17.41
13553;BME280;6847;48.830;9.116;2023-07-09T12:03:19;98232.94;;;43.31;17.52
13553;BME280;6847;48.830;9.116;2023-07-09T12:05:51;98257.44;;;42.99;17.55
13553;BME280;6847;48.830;9.116;2023-07-09T12:08:25;98253.28;;;42.86;17.72
13553;BME280;6847;48.830;9.116;2023-07-09T12:10:54;98249.00;;;43.05;17.44
13553;BME280;6847;48.830;9.116;2023-07-09T12:13:20;98232.06;;;43.25;17.58
13553;BME280;6847;48.830;9.116;2023-07-09T12:15:52;98239.06;;;43.53;17.45
13553;BME280;6847;48.830;9.116;2023-07-09T12:18:20;98237.66;;;43.34;17.21
13553;BME280;6847;48.830;9.116;2023-07-09T12:20:49;98240.13;;;43.41;17.25
13553;BME280;6847;48.830;9.116;2023-07-09T12:23:27;98215.78;;;43.02;17.47
13553;BME280;6847;48.830;9.116;2023-07-09T12:26:02;98214.69;;;43.38;17.28
13553;BME280;6847;48.830;9.116;2023-07-09T12:28:31;98234.94;;;43.84;16.97
13553;BME280;6847;48.830;9.116;2023-07-09T12:31:00;98230.59;;;43.74;16.95
13553;BME280;6847;48.830;9.116;2023-07-09T12:33:28;98225.13;;;43.56;17.19
13553;BME280;6847;48.830;9.116;2023-07-09T12:35:57;98224.13;;;43.73;16.99
13553;BME280;6847;48.830;9.116;2023-07-09T12:38:29;98178.50;;;43.59;16.67
13553;BME280;6847;48.830;9.116;2023-07-09T12:41:00;98186.34;;;43.34;17.09
13553;BME280;6847;48.830;9.116;2023-07-09T12:43:28;98215.06;;;43.75;16.84
13553;BME280;6847;48.830;9.116;2023-07-09T12:45:59;98197.91;;;43.89;16.36
13553;BME280;6847;48.830;9.116;2023-07-09T12:48:33;98196.16;;;43.92;16.56
13553;BME280;6847;48.830;9.116;2023-07-09T12:51:01;98177.66;;;44.02;16.45
13553;BME280;6847;48.830;9.116;2023-07-09T12:53:39;98198.84;;;44.71;16.20
13553;BME280;6847;48.830;9.116;2023-07-09T12:56:19;98185.84;;;44.70;15.92
13553;BME280;6847;48.830;9.116;2023-07-09T12:58:50;98192.06;;;44.89;15.63
13553;BME280;6847;48.830;9.116;2023-07-09T13:01:24;98197.00;;;45.34;15.37
13553;BME280;6847;48.830;9.116;2023-07-09T13:03:55;98187.78;;;45.82;15.55
13553;BME280;6847;48.830;9.116;2023-07-09T13:06:30;98177.03;;;45.72;15.57
13553;BME280;6847;48.830;9.116;2023-07-09T13:09:13;98184.28;;;45.67;15.07
13553;BME280;6847;48.830;9.116;2023-07-09T13:11:44;98178.25;;;45.59;15.45
13553;BME280;6847;48.830;9.116;2023-07-09T13:14:19;98172.59;;;45.70;14.96
13553;BME280;6847;48.830;9.116;2023-07-09T13:16:46;98126.00;;;46.01;14.70
13553;BME280;6847;48.830;9.116;2023-07-09T13:19:13;98166.84;;;47.09;14.65
13553;BME280;6847;48.830;9.116;2023-07-09T13:21:45;98166.38;;;47.83;13.95
13553;BME280;6847;48.830;9.116;2023-07-09T13:24:18;98165.22;;;48.31;13.94
13553;BME280;6847;48.830;9.116;2023-07-09T13:26:47;98164.09;;;48.68;13.83
13553;BME280;6847;48.830;9.116;2023-07-09T13:29:18;98159.00;;;49.32;13.74